Airfield :
LOGIN :

Register | Disclaimer

   EN    FR    IT 

 










Legend :    VFR   Marginal VFR   IFR   Intensive IFR   Very Intensive IFR
Visi :
Ceiling :
>= 8 km
>= 3000ft
5 to 8 km
1000 to 3000 ft
1500m to 5 km
500 to 1000 ft
800 to 1500m
200 to 500 ft
< 800m
< 200 ft
Symbols :   Thunderstorms  Fog  Heavy snow  Heavy precipitations  Wind > 20 kt
SIGMETs :     Misc.  Thunderstorms  Icing  Turbulence  Mountain Waves  Volcanic Ashes







- Airport Elevation : 21 ft
- IATA code : VST


ESOW - Stockholm Västerås

CURRENT METAR :
  • 201550Z AUTO 22013KT 190V250 9999 NCD 23/02 Q1025

EXPIRED METARs :
  • 201520Z AUTO 21010KT 180V240 9999 NCD 24/03 Q1025
  • 201450Z AUTO 22011KT 9999 NCD 24/03 Q1025
  • 201420Z AUTO 21011KT 9999 NCD 24/04 Q1025
  • 201350Z 22011KT 190V250 CAVOK 24/04 Q1025
  • 201320Z 22011KT 180V240 CAVOK 24/04 Q1025
  • 201250Z 21013KT CAVOK 24/04 Q1025

Expired Forecast.
No reported NOTAMs for that airfield.
1 SIGMET reported for the Sweden FIR (ESAA) :
 
Severe mountain waves
ESAA SIGMET 1 VALID 201600/202000 ESSA
ESAA SWEDEN FIR SEV MTW FCST W OF LINE N6840 E02129 - N6523 E01431 SFC/FL180 STNR NC=



MET'MAP, your aeronautical weather chart ! - Copyright ORBIFLY December 2007 - Disclaimer

ORBIFLY MET'MAP TEAM :

Programming & Development : Alexandra Zaïnal
Concept & Development : Baudouin d'Aumeries
Co-Development & Prog : Marc-Olivier Méhu
Technical & hardware support : Manuel Goepfert

Contact : metmap@orbifly.com




SOURCES & CREDITS :

   NOAA